sensor_id;sensor_type;location;lat;lon;timestamp;pressure;altitude;pressure_sealevel;temperature;humidity
70684;BME280;58263;48.146;11.440;2023-05-03T00:00:14;96367.56;;;6.96;82.16
70684;BME280;58263;48.146;11.440;2023-05-03T00:02:41;96365.31;;;6.93;81.57
70684;BME280;58263;48.146;11.440;2023-05-03T00:05:10;96366.25;;;6.85;81.27
70684;BME280;58263;48.146;11.440;2023-05-03T00:07:42;96361.88;;;6.77;81.45
70684;BME280;58263;48.146;11.440;2023-05-03T00:10:09;96366.00;;;6.80;81.79
70684;BME280;58263;48.146;11.440;2023-05-03T00:12:39;96361.03;;;6.77;81.80
70684;BME280;58263;48.146;11.440;2023-05-03T00:15:05;96356.31;;;6.72;81.35
70684;BME280;58263;48.146;11.440;2023-05-03T00:17:31;96357.31;;;6.71;81.14
70684;BME280;58263;48.146;11.440;2023-05-03T00:19:56;96353.13;;;6.62;81.83
70684;BME280;58263;48.146;11.440;2023-05-03T00:22:22;96354.38;;;6.66;81.55
70684;BME280;58263;48.146;11.440;2023-05-03T00:24:47;96351.47;;;6.61;81.24
70684;BME280;58263;48.146;11.440;2023-05-03T00:27:15;96359.66;;;6.59;81.79
70684;BME280;58263;48.146;11.440;2023-05-03T00:29:40;96353.50;;;6.59;81.57
70684;BME280;58263;48.146;11.440;2023-05-03T00:32:05;96353.50;;;6.59;81.59
70684;BME280;58263;48.146;11.440;2023-05-03T00:34:31;96360.41;;;6.53;81.25
70684;BME280;58263;48.146;11.440;2023-05-03T00:36:57;96356.69;;;6.48;81.33
70684;BME280;58263;48.146;11.440;2023-05-03T00:39:22;96350.97;;;6.51;81.33
70684;BME280;58263;48.146;11.440;2023-05-03T00:41:47;96348.03;;;6.46;81.88
70684;BME280;58263;48.146;11.440;2023-05-03T00:44:13;96346.56;;;6.43;82.32
70684;BME280;58263;48.146;11.440;2023-05-03T00:46:38;96342.38;;;6.34;82.16
70684;BME280;58263;48.146;11.440;2023-05-03T00:49:04;96345.03;;;6.34;82.03
70684;BME280;58263;48.146;11.440;2023-05-03T00:51:29;96345.22;;;6.32;81.42
70684;BME280;58263;48.146;11.440;2023-05-03T00:53:56;96353.75;;;6.42;80.62
70684;BME280;58263;48.146;11.440;2023-05-03T00:56:22;96352.53;;;6.45;80.20
70684;BME280;58263;48.146;11.440;2023-05-03T00:58:49;96351.22;;;6.34;80.62
70684;BME280;58263;48.146;11.440;2023-05-03T01:01:15;96348.53;;;6.34;80.59
70684;BME280;58263;48.146;11.440;2023-05-03T01:03:40;96342.13;;;6.29;80.51
70684;BME280;58263;48.146;11.440;2023-05-03T01:06:24;96343.41;;;6.33;81.12
70684;BME280;58263;48.146;11.440;2023-05-03T01:11:40;96343.13;;;6.28;81.05
70684;BME280;58263;48.146;11.440;2023-05-03T01:14:35;96339.63;;;6.27;82.46
70684;BME280;58263;48.146;11.440;2023-05-03T01:17:08;96334.50;;;6.25;82.72
70684;BME280;58263;48.146;11.440;2023-05-03T01:19:59;96334.69;;;6.24;83.50
70684;BME280;58263;48.146;11.440;2023-05-03T01:22:34;96331.75;;;6.19;83.31
70684;BME280;58263;48.146;11.440;2023-05-03T01:25:06;96332.59;;;6.19;83.15
70684;BME280;58263;48.146;11.440;2023-05-03T01:27:33;96337.94;;;6.19;83.20
70684;BME280;58263;48.146;11.440;2023-05-03T01:29:58;96340.78;;;6.18;83.84
70684;BME280;58263;48.146;11.440;2023-05-03T01:37:58;96335.81;;;6.15;83.24
70684;BME280;58263;48.146;11.440;2023-05-03T01:40:25;96335.66;;;6.16;83.06
70684;BME280;58263;48.146;11.440;2023-05-03T01:42:54;96337.19;;;6.11;83.21
70684;BME280;58263;48.146;11.440;2023-05-03T01:45:21;96337.00;;;6.12;83.53
70684;BME280;58263;48.146;11.440;2023-05-03T01:47:46;96339.63;;;6.05;83.65
70684;BME280;58263;48.146;11.440;2023-05-03T01:50:11;96339.44;;;6.07;82.77
70684;BME280;58263;48.146;11.440;2023-05-03T01:52:37;96344.28;;;6.03;83.19
70684;BME280;58263;48.146;11.440;2023-05-03T01:55:02;96341.00;;;6.01;82.57
70684;BME280;58263;48.146;11.440;2023-05-03T01:57:28;96350.28;;;6.05;82.71
70684;BME280;58263;48.146;11.440;2023-05-03T01:59:53;96347.66;;;6.12;82.44
70684;BME280;58263;48.146;11.440;2023-05-03T02:02:18;96340.31;;;6.14;82.00
70684;BME280;58263;48.146;11.440;2023-05-03T02:04:43;96350.31;;;6.12;81.85
70684;BME280;58263;48.146;11.440;2023-05-03T02:07:10;96351.34;;;6.11;81.28
70684;BME280;58263;48.146;11.440;2023-05-03T02:09:35;96346.38;;;6.08;81.22
70684;BME280;58263;48.146;11.440;2023-05-03T02:12:00;96350.50;;;5.96;81.78
70684;BME280;58263;48.146;11.440;2023-05-03T02:14:25;96347.84;;;5.96;82.44
70684;BME280;58263;48.146;11.440;2023-05-03T02:16:51;96354.56;;;5.91;82.43
70684;BME280;58263;48.146;11.440;2023-05-03T02:19:19;96345.38;;;5.94;81.93
70684;BME280;58263;48.146;11.440;2023-05-03T02:21:44;96343.38;;;5.96;82.23
70684;BME280;58263;48.146;11.440;2023-05-03T02:24:10;96349.88;;;5.93;82.62
70684;BME280;58263;48.146;11.440;2023-05-03T02:26:35;96351.81;;;6.00;82.87
70684;BME280;58263;48.146;11.440;2023-05-03T02:29:01;96344.28;;;6.03;83.28
70684;BME280;58263;48.146;11.440;2023-05-03T02:31:26;96352.94;;;6.05;83.35
70684;BME280;58263;48.146;11.440;2023-05-03T02:33:51;96354.38;;;6.08;83.38
70684;BME280;58263;48.146;11.440;2023-05-03T02:36:19;96354.22;;;6.09;84.01
70684;BME280;58263;48.146;11.440;2023-05-03T02:38:44;96353.44;;;6.16;83.31
70684;BME280;58263;48.146;11.440;2023-05-03T02:41:09;96352.06;;;6.20;83.52
70684;BME280;58263;48.146;11.440;2023-05-03T02:43:35;96347.38;;;6.22;83.51
70684;BME280;58263;48.146;11.440;2023-05-03T02:46:00;96348.00;;;6.24;83.93
70684;BME280;58263;48.146;11.440;2023-05-03T02:48:26;96345.34;;;6.24;83.93
70684;BME280;58263;48.146;11.440;2023-05-03T02:50:51;96344.97;;;6.27;84.38
70684;BME280;58263;48.146;11.440;2023-05-03T02:53:16;96346.88;;;6.33;84.03
70684;BME280;58263;48.146;11.440;2023-05-03T02:55:42;96341.16;;;6.36;84.23
70684;BME280;58263;48.146;11.440;2023-05-03T02:58:07;96345.69;;;6.36;84.87
70684;BME280;58263;48.146;11.440;2023-05-03T03:00:34;96347.56;;;6.42;84.88
70684;BME280;58263;48.146;11.440;2023-05-03T03:02:59;96347.41;;;6.43;85.01
70684;BME280;58263;48.146;11.440;2023-05-03T03:05:25;96351.72;;;6.45;84.69
70684;BME280;58263;48.146;11.440;2023-05-03T03:07:50;96347.16;;;6.38;85.02
70684;BME280;58263;48.146;11.440;2023-05-03T03:10:15;96352.66;;;6.37;84.45
70684;BME280;58263;48.146;11.440;2023-05-03T03:12:41;96356.97;;;6.38;84.03
70684;BME280;58263;48.146;11.440;2023-05-03T03:15:07;96352.34;;;6.47;83.84
70684;BME280;58263;48.146;11.440;2023-05-03T03:17:32;96350.69;;;6.46;83.18
70684;BME280;58263;48.146;11.440;2023-05-03T03:19:58;96350.69;;;6.46;83.76
70684;BME280;58263;48.146;11.440;2023-05-03T03:22:23;96355.63;;;6.49;83.56
70684;BME280;58263;48.146;11.440;2023-05-03T03:24:50;96355.91;;;6.54;83.87
70684;BME280;58263;48.146;11.440;2023-05-03T03:27:15;96352.63;;;6.52;84.26
70684;BME280;58263;48.146;11.440;2023-05-03T03:29:41;96352.63;;;6.52;83.56
70684;BME280;58263;48.146;11.440;2023-05-03T03:32:09;96352.97;;;6.49;83.66
70684;BME280;58263;48.146;11.440;2023-05-03T03:34:34;96343.38;;;6.54;83.46
70684;BME280;58263;48.146;11.440;2023-05-03T03:37:01;96351.38;;;6.54;83.17
70684;BME280;58263;48.146;11.440;2023-05-03T03:39:26;96351.22;;;6.56;83.37
70684;BME280;58263;48.146;11.440;2023-05-03T03:41:51;96357.56;;;6.55;83.54
70684;BME280;58263;48.146;11.440;2023-05-03T03:44:17;96351.03;;;6.57;83.63
70684;BME280;58263;48.146;11.440;2023-05-03T03:46:42;96357.38;;;6.56;83.84
70684;BME280;58263;48.146;11.440;2023-05-03T03:49:07;96357.19;;;6.58;84.23
70684;BME280;58263;48.146;11.440;2023-05-03T03:51:33;96360.66;;;6.58;84.59
70684;BME280;58263;48.146;11.440;2023-05-03T03:53:58;96355.97;;;6.60;84.85
70684;BME280;58263;48.146;11.440;2023-05-03T03:56:24;96358.19;;;6.57;85.45
70684;BME280;58263;48.146;11.440;2023-05-03T03:58:49;96363.09;;;6.53;86.23
70684;BME280;58263;48.146;11.440;2023-05-03T04:01:14;96364.16;;;6.59;86.06
70684;BME280;58263;48.146;11.440;2023-05-03T04:03:40;96359.44;;;6.61;86.04
70684;BME280;58263;48.146;11.440;2023-05-03T04:06:05;96365.44;;;6.63;86.03
70684;BME280;58263;48.146;11.440;2023-05-03T04:08:30;96367.84;;;6.58;85.39
70684;BME280;58263;48.146;11.440;2023-05-03T04:10:55;96367.44;;;6.61;85.27
70684;BME280;58263;48.146;11.440;2023-05-03T04:13:21;96369.09;;;6.62;85.17
70684;BME280;58263;48.146;11.440;2023-05-03T04:15:46;96373.69;;;6.68;85.20
70684;BME280;58263;48.146;11.440;2023-05-03T04:18:11;96370.84;;;6.70;84.97
70684;BME280;58263;48.146;11.440;2023-05-03T04:20:37;96377.75;;;6.64;84.99
70684;BME280;58263;48.146;11.440;2023-05-03T04:23:02;96373.03;;;6.66;85.12
70684;BME280;58263;48.146;11.440;2023-05-03T04:25:28;96369.44;;;6.74;84.83
70684;BME280;58263;48.146;11.440;2023-05-03T04:27:56;96374.84;;;6.81;84.70
70684;BME280;58263;48.146;11.440;2023-05-03T04:30:21;96377.91;;;6.84;84.45
70684;BME280;58263;48.146;11.440;2023-05-03T04:32:47;96380.22;;;6.87;85.37
70684;BME280;58263;48.146;11.440;2023-05-03T04:35:12;96371.91;;;6.97;84.88
70684;BME280;58263;48.146;11.440;2023-05-03T04:37:39;96381.41;;;7.06;84.78
70684;BME280;58263;48.146;11.440;2023-05-03T04:40:06;96379.75;;;7.05;84.43
70684;BME280;58263;48.146;11.440;2023-05-03T04:42:33;96378.75;;;7.06;84.56
70684;BME280;58263;48.146;11.440;2023-05-03T04:44:59;96387.19;;;7.10;86.88
70684;BME280;58263;48.146;11.440;2023-05-03T04:47:27;96388.50;;;7.21;86.66
70684;BME280;58263;48.146;11.440;2023-05-03T04:49:52;96387.50;;;7.22;87.26
70684;BME280;58263;48.146;11.440;2023-05-03T04:52:17;96387.75;;;7.27;87.21
70684;BME280;58263;48.146;11.440;2023-05-03T04:54:43;96388.59;;;7.34;87.50
70684;BME280;58263;48.146;11.440;2023-05-03T04:57:09;96389.88;;;7.38;87.83
70684;BME280;58263;48.146;11.440;2023-05-03T04:59:35;96396.88;;;7.39;87.76
70684;BME280;58263;48.146;11.440;2023-05-03T05:02:00;96389.28;;;7.43;87.38
70684;BME280;58263;48.146;11.440;2023-05-03T05:04:26;96397.72;;;7.47;87.57
70684;BME280;58263;48.146;11.440;2023-05-03T05:06:52;96401.91;;;7.56;87.27
70684;BME280;58263;48.146;11.440;2023-05-03T05:09:22;96402.31;;;7.53;86.57
70684;BME280;58263;48.146;11.440;2023-05-03T05:11:48;96408.69;;;7.58;86.98
70684;BME280;58263;48.146;11.440;2023-05-03T05:14:14;96405.19;;;7.58;86.46
70684;BME280;58263;48.146;11.440;2023-05-03T05:16:39;96401.09;;;7.62;86.32
70684;BME280;58263;48.146;11.440;2023-05-03T05:19:05;96403.16;;;7.60;86.73
70684;BME280;58263;48.146;11.440;2023-05-03T05:21:30;96406.31;;;7.70;86.99
70684;BME280;58263;48.146;11.440;2023-05-03T05:23:55;96404.72;;;7.76;86.09
70684;BME280;58263;48.146;11.440;2023-05-03T05:26:21;96412.72;;;7.76;86.20
70684;BME280;58263;48.146;11.440;2023-05-03T05:28:46;96408.69;;;7.87;86.22
70684;BME280;58263;48.146;11.440;2023-05-03T05:31:11;96420.41;;;7.92;86.28
70684;BME280;58263;48.146;11.440;2023-05-03T05:33:37;96414.91;;;8.01;86.39
70684;BME280;58263;48.146;11.440;2023-05-03T05:36:03;96414.72;;;8.02;86.15
70684;BME280;58263;48.146;11.440;2023-05-03T05:38:28;96416.19;;;8.11;85.74
70684;BME280;58263;48.146;11.440;2023-05-03T05:40:54;96407.59;;;8.16;85.58
70684;BME280;58263;48.146;11.440;2023-05-03T05:43:20;96418.72;;;8.20;85.85
70684;BME280;58263;48.146;11.440;2023-05-03T05:45:45;96416.69;;;8.28;85.67
70684;BME280;58263;48.146;11.440;2023-05-03T05:48:10;96432.94;;;8.34;85.87
70684;BME280;58263;48.146;11.440;2023-05-03T05:50:35;96423.75;;;8.43;85.39
70684;BME280;58263;48.146;11.440;2023-05-03T05:53:01;96422.56;;;8.45;85.54
70684;BME280;58263;48.146;11.440;2023-05-03T05:55:26;96421.31;;;8.55;85.43
70684;BME280;58263;48.146;11.440;2023-05-03T05:57:52;96424.19;;;8.53;86.03
70684;BME280;58263;48.146;11.440;2023-05-03T06:00:17;96431.00;;;8.56;85.15
70684;BME280;58263;48.146;11.440;2023-05-03T06:02:43;96424.25;;;8.67;84.72
70684;BME280;58263;48.146;11.440;2023-05-03T06:05:09;96427.13;;;8.65;84.90
70684;BME280;58263;48.146;11.440;2023-05-03T06:07:35;96431.88;;;8.63;85.23
70684;BME280;58263;48.146;11.440;2023-05-03T06:10:01;96427.59;;;8.75;84.93
70684;BME280;58263;48.146;11.440;2023-05-03T06:12:28;96427.59;;;8.75;84.25
70684;BME280;58263;48.146;11.440;2023-05-03T06:14:53;96423.84;;;8.76;84.51
70684;BME280;58263;48.146;11.440;2023-05-03T06:17:19;96428.00;;;8.86;84.35
70684;BME280;58263;48.146;11.440;2023-05-03T06:19:44;96435.22;;;8.85;84.44
70684;BME280;58263;48.146;11.440;2023-05-03T06:22:10;96433.19;;;9.01;84.12
70684;BME280;58263;48.146;11.440;2023-05-03T06:24:35;96435.03;;;9.00;83.88
70684;BME280;58263;48.146;11.440;2023-05-03T06:27:00;96440.78;;;9.04;83.39
70684;BME280;58263;48.146;11.440;2023-05-03T06:29:26;96438.13;;;9.10;83.39
70684;BME280;58263;48.146;11.440;2023-05-03T06:31:53;96437.09;;;9.11;83.50
70684;BME280;58263;48.146;11.440;2023-05-03T06:34:19;96445.56;;;9.22;83.00
70684;BME280;58263;48.146;11.440;2023-05-03T06:36:45;96444.13;;;9.26;83.16
70684;BME280;58263;48.146;11.440;2023-05-03T06:39:11;96447.19;;;9.23;83.30
70684;BME280;58263;48.146;11.440;2023-05-03T06:41:36;96445.56;;;9.22;83.00
70684;BME280;58263;48.146;11.440;2023-05-03T06:44:01;96447.03;;;9.24;82.65
70684;BME280;58263;48.146;11.440;2023-05-03T06:46:28;96440.84;;;9.30;82.31
70684;BME280;58263;48.146;11.440;2023-05-03T06:48:54;96448.25;;;9.35;83.03
70684;BME280;58263;48.146;11.440;2023-05-03T06:51:23;96448.03;;;9.43;82.34
70684;BME280;58263;48.146;11.440;2023-05-03T06:53:52;96445.38;;;9.50;82.31
70684;BME280;58263;48.146;11.440;2023-05-03T06:56:18;96449.47;;;9.59;82.23
70684;BME280;58263;48.146;11.440;2023-05-03T06:58:44;96451.34;;;9.59;81.85
70684;BME280;58263;48.146;11.440;2023-05-03T07:01:09;96448.88;;;9.64;81.88
70684;BME280;58263;48.146;11.440;2023-05-03T07:03:36;96454.44;;;9.49;82.68
70684;BME280;58263;48.146;11.440;2023-05-03T07:06:01;96448.47;;;9.60;82.20
70684;BME280;58263;48.146;11.440;2023-05-03T07:08:28;96447.44;;;9.68;82.02
70684;BME280;58263;48.146;11.440;2023-05-03T07:10:53;96449.91;;;9.76;82.19
70684;BME280;58263;48.146;11.440;2023-05-03T07:13:18;96443.50;;;9.84;81.15
70684;BME280;58263;48.146;11.440;2023-05-03T07:15:43;96444.09;;;9.93;81.02
70684;BME280;58263;48.146;11.440;2023-05-03T07:18:10;96444.09;;;10.00;80.57
70684;BME280;58263;48.146;11.440;2023-05-03T07:20:35;96442.03;;;9.95;80.63
70684;BME280;58263;48.146;11.440;2023-05-03T07:23:00;96433.53;;;10.05;80.51
70684;BME280;58263;48.146;11.440;2023-05-03T07:25:26;96446.16;;;9.97;80.34
70684;BME280;58263;48.146;11.440;2023-05-03T07:27:51;96434.81;;;10.02;80.77
70684;BME280;58263;48.146;11.440;2023-05-03T07:30:17;96432.94;;;10.09;80.14
70684;BME280;58263;48.146;11.440;2023-05-03T07:32:42;96436.00;;;10.20;80.63
70684;BME280;58263;48.146;11.440;2023-05-03T07:35:08;96433.91;;;10.28;80.74
70684;BME280;58263;48.146;11.440;2023-05-03T07:37:33;96443.44;;;10.18;80.03
70684;BME280;58263;48.146;11.440;2023-05-03T07:39:58;96443.63;;;10.29;79.82
70684;BME280;58263;48.146;11.440;2023-05-03T07:42:24;96438.63;;;10.33;80.33
70684;BME280;58263;48.146;11.440;2023-05-03T07:44:49;96435.38;;;10.38;80.75
70684;BME280;58263;48.146;11.440;2023-05-03T07:47:15;96442.75;;;10.49;80.43
70684;BME280;58263;48.146;11.440;2023-05-03T07:49:40;96442.69;;;10.62;79.15
70684;BME280;58263;48.146;11.440;2023-05-03T07:52:05;96429.97;;;10.44;79.80
70684;BME280;58263;48.146;11.440;2023-05-03T07:54:31;96443.28;;;10.64;79.41
70684;BME280;58263;48.146;11.440;2023-05-03T07:56:56;96435.63;;;10.75;79.67
70684;BME280;58263;48.146;11.440;2023-05-03T07:59:21;96433.53;;;10.77;79.61
70684;BME280;58263;48.146;11.440;2023-05-03T08:01:46;96434.75;;;10.81;79.03
70684;BME280;58263;48.146;11.440;2023-05-03T08:04:12;96429.03;;;10.71;79.14
70684;BME280;58263;48.146;11.440;2023-05-03T08:06:37;96434.84;;;10.61;78.76
70684;BME280;58263;48.146;11.440;2023-05-03T08:09:03;96424.09;;;10.68;78.96
70684;BME280;58263;48.146;11.440;2023-05-03T08:11:29;96426.53;;;10.76;79.11
70684;BME280;58263;48.146;11.440;2023-05-03T08:13:55;96424.22;;;10.79;78.73
70684;BME280;58263;48.146;11.440;2023-05-03T08:16:20;96433.47;;;10.90;78.84
70684;BME280;58263;48.146;11.440;2023-05-03T08:18:46;96426.00;;;10.99;77.53
70684;BME280;58263;48.146;11.440;2023-05-03T08:21:11;96430.56;;;10.92;77.73
70684;BME280;58263;48.146;11.440;2023-05-03T08:23:37;96428.41;;;11.07;78.26
70684;BME280;58263;48.146;11.440;2023-05-03T08:26:04;96429.47;;;11.31;77.44
70684;BME280;58263;48.146;11.440;2023-05-03T08:28:29;96426.50;;;11.40;77.01
70684;BME280;58263;48.146;11.440;2023-05-03T08:30:55;96422.63;;;11.61;76.17
70684;BME280;58263;48.146;11.440;2023-05-03T08:33:21;96421.91;;;11.72;75.45
70684;BME280;58263;48.146;11.440;2023-05-03T08:35:46;96424.63;;;11.91;75.34
70684;BME280;58263;48.146;11.440;2023-05-03T08:38:11;96422.53;;;11.93;74.91
70684;BME280;58263;48.146;11.440;2023-05-03T08:40:37;96414.69;;;12.16;74.50
70684;BME280;58263;48.146;11.440;2023-05-03T08:43:08;96416.63;;;12.28;73.95
70684;BME280;58263;48.146;11.440;2023-05-03T08:45:36;96418.13;;;12.42;74.01
70684;BME280;58263;48.146;11.440;2023-05-03T08:48:02;96407.63;;;12.52;73.85
70684;BME280;58263;48.146;11.440;2023-05-03T08:50:28;96413.78;;;12.60;73.05
70684;BME280;58263;48.146;11.440;2023-05-03T08:52:55;96420.56;;;12.44;73.03
70684;BME280;58263;48.146;11.440;2023-05-03T08:55:21;96415.03;;;12.57;72.77
70684;BME280;58263;48.146;11.440;2023-05-03T08:57:46;96416.16;;;12.68;72.48
70684;BME280;58263;48.146;11.440;2023-05-03T09:00:11;96424.34;;;12.73;72.81
70684;BME280;58263;48.146;11.440;2023-05-03T09:02:38;96424.06;;;12.93;73.34
70684;BME280;58263;48.146;11.440;2023-05-03T09:05:29;96429.31;;;13.18;71.62
70684;BME280;58263;48.146;11.440;2023-05-03T09:08:00;96435.41;;;13.44;69.76
70684;BME280;58263;48.146;11.440;2023-05-03T09:10:29;96428.22;;;13.38;69.66
70684;BME280;58263;48.146;11.440;2023-05-03T09:12:58;96429.72;;;13.34;69.54
70684;BME280;58263;48.146;11.440;2023-05-03T09:15:28;96435.50;;;13.38;70.47
70684;BME280;58263;48.146;11.440;2023-05-03T09:20:40;96430.91;;;13.38;68.87
70684;BME280;58263;48.146;11.440;2023-05-03T09:23:09;96425.91;;;13.65;69.15
70684;BME280;58263;48.146;11.440;2023-05-03T09:25:45;96433.19;;;13.89;69.63
70684;BME280;58263;48.146;11.440;2023-05-03T09:28:12;96429.59;;;13.95;67.69
70684;BME280;58263;48.146;11.440;2023-05-03T09:30:38;96432.16;;;13.90;67.61
70684;BME280;58263;48.146;11.440;2023-05-03T09:33:03;96425.13;;;13.89;67.76
70684;BME280;58263;48.146;11.440;2023-05-03T09:35:29;96423.00;;;13.79;67.70
70684;BME280;58263;48.146;11.440;2023-05-03T09:40:31;96423.84;;;14.03;68.37
70684;BME280;58263;48.146;11.440;2023-05-03T09:43:07;96423.91;;;14.08;68.31
70684;BME280;58263;48.146;11.440;2023-05-03T09:45:34;96417.47;;;14.21;67.41
70684;BME280;58263;48.146;11.440;2023-05-03T09:48:04;96415.34;;;14.35;66.88
70684;BME280;58263;48.146;11.440;2023-05-03T09:50:36;96417.78;;;14.36;66.68
70684;BME280;58263;48.146;11.440;2023-05-03T09:53:03;96420.66;;;14.59;66.34
70684;BME280;58263;48.146;11.440;2023-05-03T09:55:36;96420.63;;;14.82;65.63
70684;BME280;58263;48.146;11.440;2023-05-03T09:58:02;96417.03;;;15.23;64.10
70684;BME280;58263;48.146;11.440;2023-05-03T10:00:38;96418.72;;;15.58;63.86
70684;BME280;58263;48.146;11.440;2023-05-03T10:03:09;96412.31;;;15.98;61.15
70684;BME280;58263;48.146;11.440;2023-05-03T10:05:48;96415.03;;;16.37;60.12
70684;BME280;58263;48.146;11.440;2023-05-03T10:08:33;96409.56;;;16.76;58.53
70684;BME280;58263;48.146;11.440;2023-05-03T10:11:01;96414.66;;;17.49;57.62
70684;BME280;58263;48.146;11.440;2023-05-03T10:13:28;96403.13;;;17.69;57.33
70684;BME280;58263;48.146;11.440;2023-05-03T10:16:00;96408.22;;;17.28;57.94
70684;BME280;58263;48.146;11.440;2023-05-03T10:18:30;96397.31;;;17.23;58.52
70684;BME280;58263;48.146;11.440;2023-05-03T10:21:10;96401.16;;;17.27;57.46
70684;BME280;58263;48.146;11.440;2023-05-03T10:24:00;96396.97;;;17.14;58.00
70684;BME280;58263;48.146;11.440;2023-05-03T10:26:22;96397.66;;;17.97;55.59
70684;BME280;58263;48.146;11.440;2023-05-03T10:28:48;96396.97;;;18.17;55.33
70684;BME280;58263;48.146;11.440;2023-05-03T10:31:44;96399.59;;;18.49;53.50
70684;BME280;58263;48.146;11.440;2023-05-03T10:34:20;96398.06;;;20.65;49.73
70684;BME280;58263;48.146;11.440;2023-05-03T10:36:47;96390.44;;;22.20;46.16
70684;BME280;58263;48.146;11.440;2023-05-03T10:39:15;96388.31;;;23.66;42.74
70684;BME280;58263;48.146;11.440;2023-05-03T10:41:40;96390.72;;;24.34;40.25
70684;BME280;58263;48.146;11.440;2023-05-03T10:44:34;96375.22;;;25.21;39.49
70684;BME280;58263;48.146;11.440;2023-05-03T10:47:15;96370.69;;;26.39;36.96
70684;BME280;58263;48.146;11.440;2023-05-03T10:49:40;96380.34;;;27.60;34.42
70684;BME280;58263;48.146;11.440;2023-05-03T10:54:59;96380.41;;;29.03;31.29
70684;BME280;58263;48.146;11.440;2023-05-03T10:57:30;96377.31;;;29.89;30.78
70684;BME280;58263;48.146;11.440;2023-05-03T10:59:57;96374.56;;;29.89;29.80
70684;BME280;58263;48.146;11.440;2023-05-03T11:02:32;96368.16;;;29.76;30.15
70684;BME280;58263;48.146;11.440;2023-05-03T11:05:03;96368.63;;;30.57;29.15
70684;BME280;58263;48.146;11.440;2023-05-03T11:07:33;96370.47;;;30.65;27.68
70684;BME280;58263;48.146;11.440;2023-05-03T11:09:58;96368.63;;;28.93;29.56
70684;BME280;58263;48.146;11.440;2023-05-03T11:12:24;96366.75;;;28.38;31.63
70684;BME280;58263;48.146;11.440;2023-05-03T11:14:49;96357.88;;;29.43;30.80
70684;BME280;58263;48.146;11.440;2023-05-03T11:17:15;96362.66;;;29.55;29.71
70684;BME280;58263;48.146;11.440;2023-05-03T11:19:42;96358.69;;;30.56;28.26
70684;BME280;58263;48.146;11.440;2023-05-03T11:22:08;96366.56;;;29.32;29.03
70684;BME280;58263;48.146;11.440;2023-05-03T11:24:33;96363.25;;;28.11;30.95
70684;BME280;58263;48.146;11.440;2023-05-03T11:26:59;96357.31;;;27.74;32.53
70684;BME280;58263;48.146;11.440;2023-05-03T11:29:25;96349.72;;;29.80;29.69
70684;BME280;58263;48.146;11.440;2023-05-03T11:31:51;96354.97;;;30.40;27.45
70684;BME280;58263;48.146;11.440;2023-05-03T11:34:17;96354.47;;;32.22;24.60
70684;BME280;58263;48.146;11.440;2023-05-03T11:36:42;96349.56;;;29.85;28.13
70684;BME280;58263;48.146;11.440;2023-05-03T11:39:10;96345.97;;;30.92;27.23
70684;BME280;58263;48.146;11.440;2023-05-03T11:41:36;96356.81;;;31.91;25.32
70684;BME280;58263;48.146;11.440;2023-05-03T11:44:01;96357.59;;;33.00;24.49
70684;BME280;58263;48.146;11.440;2023-05-03T11:46:31;96347.00;;;34.23;23.17
70684;BME280;58263;48.146;11.440;2023-05-03T11:48:57;96343.03;;;33.81;24.06
70684;BME280;58263;48.146;11.440;2023-05-03T11:51:23;96342.19;;;34.93;22.50
70684;BME280;58263;48.146;11.440;2023-05-03T11:53:49;96337.47;;;35.24;21.96
70684;BME280;58263;48.146;11.440;2023-05-03T11:56:16;96331.03;;;35.47;20.97
70684;BME280;58263;48.146;11.440;2023-05-03T11:58:53;96329.91;;;35.55;20.36
70684;BME280;58263;48.146;11.440;2023-05-03T12:01:22;96322.94;;;35.72;21.26
70684;BME280;58263;48.146;11.440;2023-05-03T12:03:52;96323.91;;;34.23;22.78
70684;BME280;58263;48.146;11.440;2023-05-03T12:06:17;96332.72;;;32.72;23.78
70684;BME280;58263;48.146;11.440;2023-05-03T12:08:42;96314.72;;;31.32;25.87
70684;BME280;58263;48.146;11.440;2023-05-03T12:11:08;96311.81;;;31.69;25.77
70684;BME280;58263;48.146;11.440;2023-05-03T12:13:35;96313.84;;;31.57;25.56
70684;BME280;58263;48.146;11.440;2023-05-03T12:16:02;96312.72;;;31.17;25.75
70684;BME280;58263;48.146;11.440;2023-05-03T12:18:44;96318.00;;;32.55;24.09
70684;BME280;58263;48.146;11.440;2023-05-03T12:21:10;96305.13;;;33.34;22.64
70684;BME280;58263;48.146;11.440;2023-05-03T12:23:36;96301.09;;;34.36;21.28
70684;BME280;58263;48.146;11.440;2023-05-03T12:26:02;96309.28;;;35.63;19.83
70684;BME280;58263;48.146;11.440;2023-05-03T12:28:27;96304.16;;;36.48;19.67
70684;BME280;58263;48.146;11.440;2023-05-03T12:30:52;96308.56;;;37.04;18.89
70684;BME280;58263;48.146;11.440;2023-05-03T12:33:18;96308.91;;;36.96;18.92
70684;BME280;58263;48.146;11.440;2023-05-03T12:35:45;96299.22;;;37.49;17.38
70684;BME280;58263;48.146;11.440;2023-05-03T12:38:10;96295.50;;;37.27;18.40
70684;BME280;58263;48.146;11.440;2023-05-03T12:40:36;96295.31;;;36.94;18.76
70684;BME280;58263;48.146;11.440;2023-05-03T12:43:03;96288.06;;;37.63;18.54
70684;BME280;58263;48.146;11.440;2023-05-03T12:45:28;96287.72;;;37.79;18.60
70684;BME280;58263;48.146;11.440;2023-05-03T12:47:56;96270.47;;;35.85;19.65
70684;BME280;58263;48.146;11.440;2023-05-03T12:50:21;96283.00;;;34.77;21.16
70684;BME280;58263;48.146;11.440;2023-05-03T12:52:46;96271.63;;;34.35;21.20
70684;BME280;58263;48.146;11.440;2023-05-03T12:55:12;96276.00;;;33.12;21.87
70684;BME280;58263;48.146;11.440;2023-05-03T12:57:37;96270.25;;;34.49;20.64
70684;BME280;58263;48.146;11.440;2023-05-03T13:00:07;96259.31;;;34.13;20.97
70684;BME280;58263;48.146;11.440;2023-05-03T13:02:33;96263.84;;;32.29;23.33
70684;BME280;58263;48.146;11.440;2023-05-03T13:04:59;96254.50;;;31.17;24.34
70684;BME280;58263;48.146;11.440;2023-05-03T13:07:25;96258.75;;;28.99;25.77
70684;BME280;58263;48.146;11.440;2023-05-03T13:09:53;96262.69;;;27.99;26.99